createdAt,value
2023-05-08T00:02:21.057Z,95657.41
2023-05-08T00:05:07.273Z,95662.50
2023-05-08T00:07:53.769Z,95659.25
2023-05-08T00:10:39.677Z,95663.00
2023-05-08T00:13:25.588Z,95663.34
2023-05-08T00:16:12.771Z,95663.59
2023-05-08T00:18:59.812Z,95665.66
2023-05-08T00:21:45.886Z,95659.28
2023-05-08T00:24:38.599Z,95660.69
2023-05-08T00:27:24.461Z,95660.56
2023-05-08T00:30:11.208Z,95655.91
2023-05-08T00:32:57.682Z,95660.47
2023-05-08T00:35:43.472Z,95655.13
2023-05-08T00:38:36.061Z,95650.91
2023-05-08T00:41:21.907Z,95648.16
2023-05-08T00:44:08.453Z,95648.16
2023-05-08T00:46:54.385Z,95657.25
2023-05-08T00:49:40.554Z,95651.78
2023-05-08T00:52:28.561Z,95651.34
2023-05-08T00:55:14.406Z,95655.22
2023-05-08T00:58:00.453Z,95661.81
2023-05-08T01:00:47.162Z,95658.88
2023-05-08T01:03:36.022Z,95648.66
2023-05-08T01:06:22.106Z,95652.41
2023-05-08T01:09:08.707Z,95661.28
2023-05-08T01:12:18.415Z,95671.78
2023-05-08T01:15:36.444Z,95664.63
2023-05-08T01:18:59.864Z,95668.81
2023-05-08T01:21:57.453Z,95674.88
2023-05-08T01:25:32.217Z,95678.97
2023-05-08T01:28:48.015Z,95671.69
2023-05-08T01:32:10.774Z,95669.22
2023-05-08T01:35:42.698Z,95666.03
2023-05-08T01:39:11.015Z,95675.34
2023-05-08T01:42:16.044Z,95675.81
2023-05-08T01:45:05.760Z,95671.94
2023-05-08T01:48:06.777Z,95673.50
2023-05-08T01:51:01.433Z,95669.97
2023-05-08T01:54:05.947Z,95676.25
2023-05-08T01:56:55.603Z,95675.56
2023-05-08T01:59:42.451Z,95672.84
2023-05-08T02:02:31.641Z,95677.16
2023-05-08T02:05:18.888Z,95663.75
2023-05-08T02:08:08.597Z,95674.66
2023-05-08T02:10:56.484Z,95669.31
2023-05-08T02:13:44.828Z,95676.25
2023-05-08T02:16:31.844Z,95670.78
2023-05-08T02:19:19.614Z,95666.91
2023-05-08T02:22:06.184Z,95666.03
2023-05-08T02:24:55.731Z,95668.28
2023-05-08T02:27:47.705Z,95660.31
2023-05-08T02:30:34.091Z,95655.56
2023-05-08T02:33:20.913Z,95657.38
2023-05-08T02:36:08.040Z,95664.22
2023-05-08T02:38:54.528Z,95658.94
2023-05-08T02:41:42.517Z,95665.06
2023-05-08T02:44:28.954Z,95667.13
2023-05-08T02:48:15.949Z,95661.22
2023-05-08T02:51:25.184Z,95663.31
2023-05-08T02:54:16.488Z,95664.56
2023-05-08T02:57:15.742Z,95667.72
2023-05-08T03:00:08.328Z,95663.50
2023-05-08T03:03:01.001Z,95664.31
2023-05-08T03:05:53.728Z,95669.88
2023-05-08T03:08:45.764Z,95674.69
2023-05-08T03:11:39.018Z,95671.94
2023-05-08T03:14:30.469Z,95670.44
2023-05-08T03:17:17.400Z,95673.97
2023-05-08T03:20:06.187Z,95679.88
2023-05-08T03:22:53.992Z,95672.84
2023-05-08T03:25:50.996Z,95671.25
2023-05-08T03:28:37.278Z,95683.06
2023-05-08T03:31:24.083Z,95665.78
2023-05-08T03:34:12.705Z,95678.28
2023-05-08T03:36:59.111Z,95670.34
2023-05-08T03:39:45.278Z,95674.22
2023-05-08T03:42:31.428Z,95687.06
2023-05-08T03:45:18.625Z,95678.06
2023-05-08T03:48:05.815Z,95677.63
2023-05-08T03:50:53.782Z,95681.03
2023-05-08T03:53:39.785Z,95667.72
2023-05-08T03:56:26.193Z,95666.16
2023-05-08T03:59:42.630Z,95671.38
2023-05-08T04:02:42.294Z,95671.69
2023-05-08T04:05:37.850Z,95670.09
2023-05-08T04:08:33.764Z,95666.16
2023-05-08T04:11:44.652Z,95669.22
2023-05-08T04:14:36.064Z,95673.53
2023-05-08T04:17:59.520Z,95670.00
2023-05-08T04:20:51.929Z,95675.81
2023-05-08T04:23:40.721Z,95684.28
2023-05-08T04:26:27.341Z,95677.81
2023-05-08T04:29:14.817Z,95677.81
2023-05-08T04:32:01.604Z,95696.22
2023-05-08T04:34:47.873Z,95689.16
2023-05-08T04:37:33.754Z,95690.56
2023-05-08T04:40:21.748Z,95702.59
2023-05-08T04:43:08.107Z,95701.94
2023-05-08T04:45:54.220Z,95707.88
2023-05-08T04:48:40.066Z,95700.81
2023-05-08T04:51:26.457Z,95710.34
2023-05-08T04:54:12.723Z,95708.56
2023-05-08T04:56:59.061Z,95707.06
2023-05-08T04:59:45.348Z,95710.56
2023-05-08T05:02:31.432Z,95718.75
2023-05-08T05:05:17.862Z,95718.09
2023-05-08T05:08:04.394Z,95716.97
2023-05-08T05:10:50.651Z,95715.94
2023-05-08T05:13:36.492Z,95714.81
2023-05-08T05:16:23.851Z,95703.91
2023-05-08T05:19:10.161Z,95709.00
2023-05-08T05:21:56.677Z,95707.50
2023-05-08T05:24:42.850Z,95713.56
2023-05-08T05:27:28.783Z,95709.22
2023-05-08T05:30:15.385Z,95717.19
2023-05-08T05:33:01.975Z,95717.19
2023-05-08T05:35:48.469Z,95712.63
2023-05-08T05:38:34.511Z,95719.09
2023-05-08T05:41:20.357Z,95710.56
2023-05-08T05:44:06.812Z,95705.56
2023-05-08T05:46:52.788Z,95704.56
2023-05-08T05:49:39.966Z,95706.22
2023-05-08T05:52:26.894Z,95717.63
2023-05-08T05:55:13.270Z,95710.34
2023-05-08T05:58:03.189Z,95704.16
2023-05-08T06:00:49.939Z,95699.63
2023-05-08T06:03:35.822Z,95697.56
2023-05-08T06:06:23.130Z,95699.63
2023-05-08T06:09:09.289Z,95711.88
2023-05-08T06:11:55.544Z,95717.13
2023-05-08T06:14:41.642Z,95705.50
2023-05-08T06:17:29.480Z,95702.53
2023-05-08T06:20:16.863Z,95703.91
2023-05-08T06:23:02.826Z,95701.72
2023-05-08T06:25:49.566Z,95696.00
2023-05-08T06:28:35.622Z,95700.06
2023-05-08T06:31:21.808Z,95696.31
2023-05-08T06:34:08.141Z,95695.34
2023-05-08T06:36:54.171Z,95693.59
2023-05-08T06:39:39.981Z,95693.72
2023-05-08T06:42:26.202Z,95691.50
2023-05-08T06:45:12.653Z,95687.72
2023-05-08T06:47:58.814Z,95694.53
2023-05-08T06:50:44.820Z,95701.34
2023-05-08T06:53:31.162Z,95697.91
2023-05-08T06:56:16.991Z,95696.16
2023-05-08T06:59:08.320Z,95688.75
2023-05-08T07:01:54.895Z,95692.38
2023-05-08T07:04:40.768Z,95686.19
2023-05-08T07:07:26.833Z,95694.16
2023-05-08T07:10:12.864Z,95688.78
2023-05-08T07:12:58.780Z,95675.00
2023-05-08T07:15:44.938Z,95682.69
2023-05-08T07:18:30.755Z,95683.13
2023-05-08T07:21:18.819Z,95687.19
2023-05-08T07:24:05.055Z,95690.13
2023-05-08T07:26:51.722Z,95680.72
2023-05-08T07:29:37.750Z,95681.63
2023-05-08T07:32:24.203Z,95668.38
2023-05-08T07:35:12.336Z,95670.81
2023-05-08T07:37:58.748Z,95667.81
2023-05-08T07:40:44.577Z,95652.09
2023-05-08T07:43:30.541Z,95664.09
2023-05-08T07:46:17.774Z,95665.78
2023-05-08T07:49:04.020Z,95661.94
2023-05-08T07:51:49.999Z,95671.50
2023-05-08T07:54:36.024Z,95663.72
2023-05-08T07:57:22.098Z,95666.91
2023-05-08T08:00:10.824Z,95675.25
2023-05-08T08:02:59.704Z,95671.81
2023-05-08T08:05:45.763Z,95672.00
2023-05-08T08:08:31.812Z,95662.63
2023-05-08T08:11:17.845Z,95661.63
2023-05-08T08:14:04.506Z,95659.75
2023-05-08T08:16:50.671Z,95668.47
2023-05-08T08:19:36.549Z,95658.31
2023-05-08T08:22:23.409Z,95662.72
2023-05-08T08:25:12.795Z,95664.34
2023-05-08T08:27:59.179Z,95665.59
2023-05-08T08:30:45.229Z,95666.81
2023-05-08T08:33:30.902Z,95670.44
2023-05-08T08:36:16.633Z,95661.81
2023-05-08T08:39:02.581Z,95658.88
2023-05-08T08:41:48.546Z,95659.72
2023-05-08T08:44:34.925Z,95648.84
2023-05-08T08:47:23.876Z,95650.44
2023-05-08T08:50:12.864Z,95652.06
2023-05-08T08:53:24.838Z,95654.09
2023-05-08T08:56:12.109Z,95638.00
2023-05-08T08:59:01.755Z,95643.56
2023-05-08T09:01:49.162Z,95633.03
2023-05-08T09:04:35.077Z,95633.13
2023-05-08T09:07:21.114Z,95628.53
2023-05-08T09:10:07.815Z,95621.22
2023-05-08T09:12:54.167Z,95616.53
2023-05-08T09:15:41.043Z,95623.69
2023-05-08T09:18:27.156Z,95620.97
2023-05-08T09:21:13.201Z,95613.63
2023-05-08T09:24:00.865Z,95618.06
2023-05-08T09:26:47.011Z,95624.84
2023-05-08T09:29:32.675Z,95609.63
2023-05-08T09:32:19.019Z,95613.28
2023-05-08T09:35:06.566Z,95596.88
2023-05-08T09:37:52.342Z,95596.97
2023-05-08T09:40:38.232Z,95597.88
2023-05-08T09:43:24.290Z,95595.16
2023-05-08T09:46:19.374Z,95600.03
2023-05-08T09:49:05.693Z,95598.16
2023-05-08T09:51:53.989Z,95602.22
2023-05-08T09:54:39.920Z,95588.97
2023-05-08T09:57:27.034Z,95590.69
2023-05-08T10:00:14.011Z,95589.66
2023-05-08T10:03:01.431Z,95586.25
2023-05-08T10:05:47.593Z,95581.56
2023-05-08T10:08:33.479Z,95585.66
2023-05-08T10:11:21.423Z,95595.22
2023-05-08T10:14:08.334Z,95568.59
2023-05-08T10:16:54.960Z,95562.72
2023-05-08T10:19:46.320Z,95563.22
2023-05-08T10:22:33.929Z,95567.22
2023-05-08T10:25:23.399Z,95557.03
2023-05-08T10:28:15.456Z,95556.28
2023-05-08T10:31:03.911Z,95550.84
2023-05-08T10:33:51.519Z,95549.31
2023-05-08T10:36:37.802Z,95553.66
2023-05-08T10:39:24.116Z,95554.06
2023-05-08T10:42:11.404Z,95558.41
2023-05-08T10:44:57.718Z,95551.69
2023-05-08T10:48:11.798Z,95560.75
2023-05-08T10:51:16.667Z,95567.38
2023-05-08T10:54:08.342Z,95566.56
2023-05-08T10:57:08.487Z,95586.53
2023-05-08T10:59:54.611Z,95588.41
2023-05-08T11:02:40.662Z,95602.50
2023-05-08T11:05:28.737Z,95602.78
2023-05-08T11:08:18.981Z,95619.16
2023-05-08T11:11:10.553Z,95624.16
2023-05-08T11:14:09.382Z,95631.91
2023-05-08T11:16:55.461Z,95635.72
2023-05-08T11:20:00.343Z,95649.72
2023-05-08T11:22:49.559Z,95640.94
2023-05-08T11:25:43.662Z,95615.59
2023-05-08T11:28:34.401Z,95627.22
2023-05-08T11:31:21.055Z,95628.53
2023-05-08T11:34:43.323Z,95647.88
2023-05-08T11:37:32.025Z,95664.91
2023-05-08T11:40:50.510Z,95681.63
2023-05-08T11:44:18.338Z,95714.25
2023-05-08T11:47:04.450Z,95744.47
2023-05-08T11:49:50.722Z,95740.84
2023-05-08T11:52:38.108Z,95732.44
2023-05-08T11:55:24.058Z,95717.06
2023-05-08T11:58:13.602Z,95714.38
2023-05-08T12:00:59.879Z,95721.09
2023-05-08T12:03:46.527Z,95720.84
2023-05-08T12:06:34.098Z,95722.22
2023-05-08T12:09:20.999Z,95708.84
2023-05-08T12:12:07.406Z,95702.91
2023-05-08T12:14:53.550Z,95692.66
2023-05-08T12:17:40.981Z,95685.16
2023-05-08T12:20:27.138Z,95690.63
2023-05-08T12:23:13.016Z,95685.16
2023-05-08T12:26:00.169Z,95696.53
2023-05-08T12:28:47.510Z,95694.25
2023-05-08T12:31:36.939Z,95683.59
2023-05-08T12:34:22.982Z,95693.00
2023-05-08T12:37:09.224Z,95695.41
2023-05-08T12:39:56.224Z,95695.41
2023-05-08T12:42:51.762Z,95704.94
2023-05-08T12:45:42.508Z,95688.53
2023-05-08T12:48:28.940Z,95685.50
2023-05-08T12:51:15.048Z,95668.38
2023-05-08T12:54:01.270Z,95660.59
2023-05-08T12:56:50.094Z,95661.91
2023-05-08T12:59:35.852Z,95660.06
2023-05-08T13:02:24.245Z,95652.28
2023-05-08T13:05:10.157Z,95659.84
2023-05-08T13:08:05.237Z,95657.22
2023-05-08T13:10:55.554Z,95659.59
2023-05-08T13:13:41.480Z,95647.84
2023-05-08T13:16:27.620Z,95645.81
2023-05-08T13:19:16.222Z,95654.81
2023-05-08T13:22:02.390Z,95648.53
2023-05-08T13:24:48.615Z,95658.00
2023-05-08T13:27:37.971Z,95642.38
2023-05-08T13:30:23.895Z,95644.81
2023-05-08T13:33:10.132Z,95649.22
2023-05-08T13:35:56.403Z,95641.81
2023-05-08T13:38:42.468Z,95649.72
2023-05-08T13:41:28.309Z,95647.44
2023-05-08T13:44:14.499Z,95649.03
2023-05-08T13:47:00.735Z,95654.63
2023-05-08T13:49:47.397Z,95652.38
2023-05-08T13:52:35.059Z,95648.47
2023-05-08T13:55:22.865Z,95636.81
2023-05-08T13:58:09.167Z,95641.56
2023-05-08T14:00:55.389Z,95639.25
2023-05-08T14:03:41.558Z,95637.66
2023-05-08T14:06:27.561Z,95644.81
2023-05-08T14:09:14.334Z,95639.69
2023-05-08T14:12:00.379Z,95640.41
2023-05-08T14:14:46.667Z,95654.97
2023-05-08T14:17:33.054Z,95648.34
2023-05-08T14:20:19.304Z,95653.41
2023-05-08T14:23:05.455Z,95649.16
2023-05-08T14:25:51.616Z,95648.34
2023-05-08T14:28:37.490Z,95648.44
2023-05-08T14:31:23.481Z,95649.22
2023-05-08T14:34:18.180Z,95650.78
2023-05-08T14:37:05.577Z,95663.78
2023-05-08T14:39:54.234Z,95659.88
2023-05-08T14:42:40.182Z,95653.19
2023-05-08T14:45:26.046Z,95648.03
2023-05-08T14:48:12.250Z,95652.91
2023-05-08T14:50:58.503Z,95653.69
2023-05-08T14:53:44.483Z,95650.59
2023-05-08T14:56:40.443Z,95648.66
2023-05-08T14:59:33.246Z,95644.47
2023-05-08T15:02:20.756Z,95645.34
2023-05-08T15:05:10.949Z,95636.75
2023-05-08T15:08:05.201Z,95645.47
2023-05-08T15:10:52.380Z,95647.03
2023-05-08T15:13:38.333Z,95645.53
2023-05-08T15:16:24.490Z,95644.03
2023-05-08T15:19:10.439Z,95652.66
2023-05-08T15:21:56.600Z,95655.84
2023-05-08T15:24:42.279Z,95655.41
2023-05-08T15:27:29.384Z,95653.53
2023-05-08T15:30:15.567Z,95657.88
2023-05-08T15:33:02.016Z,95661.03
2023-05-08T15:35:48.213Z,95652.06
2023-05-08T15:38:34.106Z,95646.19
2023-05-08T15:41:19.866Z,95643.84
2023-05-08T15:44:06.419Z,95638.75
2023-05-08T15:46:52.482Z,95641.84
2023-05-08T15:49:38.675Z,95637.06
2023-05-08T15:52:24.647Z,95651.22
2023-05-08T15:55:11.235Z,95644.16
2023-05-08T15:57:57.916Z,95646.47
2023-05-08T16:00:45.628Z,95652.31
2023-05-08T16:03:32.642Z,95654.31
2023-05-08T16:06:18.566Z,95649.50
2023-05-08T16:09:04.955Z,95649.06
2023-05-08T16:11:50.776Z,95645.47
2023-05-08T16:14:36.968Z,95662.63
2023-05-08T16:17:23.741Z,95660.19
2023-05-08T16:20:12.927Z,95654.53
2023-05-08T16:22:59.372Z,95667.84
2023-05-08T16:25:45.532Z,95669.34
2023-05-08T16:29:09.444Z,95679.44
2023-05-08T16:32:02.612Z,95677.03
2023-05-08T16:34:52.779Z,95677.78
2023-05-08T16:37:39.107Z,95681.69
2023-05-08T16:40:25.313Z,95681.69
2023-05-08T16:43:11.774Z,95679.22
2023-05-08T16:46:08.068Z,95678.28
2023-05-08T16:48:54.080Z,95686.84
2023-05-08T16:51:39.972Z,95682.78
2023-05-08T16:54:26.590Z,95689.75
2023-05-08T16:57:15.880Z,95695.16
2023-05-08T17:00:01.783Z,95697.81
2023-05-08T17:02:48.092Z,95710.72
2023-05-08T17:05:34.418Z,95711.44
2023-05-08T17:08:20.519Z,95715.31
2023-05-08T17:11:06.680Z,95723.09
2023-05-08T17:13:52.744Z,95724.09
2023-05-08T17:16:38.907Z,95737.78
2023-05-08T17:19:25.061Z,95731.41
2023-05-08T17:22:11.868Z,95729.03
2023-05-08T17:24:58.485Z,95736.03
2023-05-08T17:27:44.574Z,95746.78
2023-05-08T17:30:31.485Z,95754.56
2023-05-08T17:33:18.121Z,95750.94
2023-05-08T17:36:04.628Z,95753.94
2023-05-08T17:38:52.144Z,95756.56
2023-05-08T17:41:38.110Z,95767.13
2023-05-08T17:44:24.099Z,95768.59
2023-05-08T17:47:10.304Z,95762.50
2023-05-08T17:49:56.439Z,95775.03
2023-05-08T17:52:42.529Z,95767.09
2023-05-08T17:55:30.572Z,95776.34
2023-05-08T17:58:16.791Z,95790.47
2023-05-08T18:01:03.079Z,95791.88
2023-05-08T18:03:49.377Z,95790.06
2023-05-08T18:06:35.454Z,95798.63
2023-05-08T18:09:21.642Z,95797.72
2023-05-08T18:12:08.854Z,95781.13
2023-05-08T18:14:54.838Z,95794.34
2023-05-08T18:17:41.115Z,95796.75
2023-05-08T18:20:27.133Z,95787.50
2023-05-08T18:23:12.905Z,95801.19
2023-05-08T18:25:59.025Z,95800.31
2023-05-08T18:28:45.497Z,95811.06
2023-05-08T18:31:33.049Z,95824.28
2023-05-08T18:34:19.284Z,95811.63
2023-05-08T18:37:05.234Z,95812.31
2023-05-08T18:39:51.403Z,95832.03
2023-05-08T18:42:37.469Z,95837.38
2023-05-08T18:45:23.660Z,95838.97
2023-05-08T18:48:10.888Z,95839.66
2023-05-08T18:50:58.767Z,95852.19
2023-05-08T18:53:44.786Z,95854.38
2023-05-08T18:56:30.926Z,95856.66
2023-05-08T18:59:17.074Z,95848.00
2023-05-08T19:02:07.234Z,95856.66
2023-05-08T19:04:53.919Z,95855.06
2023-05-08T19:07:41.866Z,95855.75
2023-05-08T19:10:27.909Z,95856.47
2023-05-08T19:13:14.196Z,95860.22
2023-05-08T19:16:01.900Z,95875.81
2023-05-08T19:18:47.813Z,95874.91
2023-05-08T19:21:35.172Z,95866.94
2023-05-08T19:24:26.452Z,95865.56
2023-05-08T19:27:12.735Z,95882.31
2023-05-08T19:29:58.903Z,95864.91
2023-05-08T19:32:45.361Z,95863.16
2023-05-08T19:35:31.719Z,95867.72
2023-05-08T19:38:18.328Z,95867.38
2023-05-08T19:41:04.400Z,95855.78
2023-05-08T19:43:50.445Z,95839.94
2023-05-08T19:46:37.373Z,95851.09
2023-05-08T19:49:24.424Z,95859.75
2023-05-08T19:52:10.281Z,95852.44
2023-05-08T19:54:57.234Z,95866.69
2023-05-08T19:57:43.301Z,95873.50
2023-05-08T20:00:29.534Z,95867.81
2023-05-08T20:03:15.878Z,95866.91
2023-05-08T20:06:01.940Z,95858.03
2023-05-08T20:08:48.209Z,95868.81
2023-05-08T20:11:34.358Z,95864.16
2023-05-08T20:14:20.974Z,95869.38
2023-05-08T20:17:07.664Z,95870.06
2023-05-08T20:19:54.161Z,95871.88
2023-05-08T20:22:40.737Z,95876.41
2023-05-08T20:25:27.449Z,95871.63
2023-05-08T20:28:19.260Z,95869.59
2023-05-08T20:31:05.827Z,95874.44
2023-05-08T20:33:52.217Z,95869.31
2023-05-08T20:36:38.570Z,95869.56
2023-05-08T20:39:24.252Z,95858.16
2023-05-08T20:42:10.206Z,95867.63
2023-05-08T20:44:56.288Z,95876.34
2023-05-08T20:47:42.422Z,95869.19
2023-05-08T20:50:28.735Z,95871.59
2023-05-08T20:53:14.971Z,95875.47
2023-05-08T20:56:02.603Z,95888.66
2023-05-08T20:58:49.613Z,95883.88
2023-05-08T21:01:35.902Z,95886.94
2023-05-08T21:04:22.465Z,95891.25
2023-05-08T21:07:08.434Z,95886.25
2023-05-08T21:09:54.784Z,95878.28
2023-05-08T21:12:44.557Z,95886.00
2023-05-08T21:15:30.627Z,95886.00
2023-05-08T21:18:17.157Z,95885.06
2023-05-08T21:21:03.226Z,95882.13
2023-05-08T21:23:49.263Z,95875.78
2023-05-08T21:26:36.438Z,95864.84
2023-05-08T21:29:22.542Z,95871.91
2023-05-08T21:32:10.303Z,95873.38
2023-05-08T21:34:56.626Z,95881.88
2023-05-08T21:37:43.001Z,95885.41
2023-05-08T21:40:29.153Z,95872.28
2023-05-08T21:43:14.986Z,95878.03
2023-05-08T21:46:01.157Z,95881.75
2023-05-08T21:48:48.445Z,95877.56
2023-05-08T21:51:36.190Z,95879.34
2023-05-08T21:54:24.289Z,95872.28
2023-05-08T21:57:10.497Z,95876.84
2023-05-08T21:59:56.739Z,95882.94
2023-05-08T22:02:43.218Z,95871.78
2023-05-08T22:05:30.368Z,95881.25
2023-05-08T22:08:16.640Z,95882.00
2023-05-08T22:11:02.801Z,95886.34
2023-05-08T22:13:48.700Z,95885.91
2023-05-08T22:16:35.153Z,95888.94
2023-05-08T22:19:21.077Z,95886.34
2023-05-08T22:22:07.275Z,95878.84
2023-05-08T22:24:53.345Z,95885.09
2023-05-08T22:27:39.357Z,95885.91
2023-05-08T22:30:25.308Z,95891.47
2023-05-08T22:33:11.692Z,95889.84
2023-05-08T22:35:58.297Z,95886.81
2023-05-08T22:38:44.828Z,95886.81
2023-05-08T22:41:30.924Z,95884.56
2023-05-08T22:44:17.139Z,95885.69
2023-05-08T22:47:03.189Z,95881.81
2023-05-08T22:49:49.807Z,95878.16
2023-05-08T22:52:36.412Z,95881.34
2023-05-08T22:55:22.675Z,95883.59
2023-05-08T22:58:09.803Z,95877.34
2023-05-08T23:00:56.151Z,95884.63
2023-05-08T23:03:42.275Z,95880.16
2023-05-08T23:06:28.459Z,95883.34
2023-05-08T23:09:14.208Z,95861.28
2023-05-08T23:12:00.103Z,95872.44
2023-05-08T23:14:45.933Z,95859.03
2023-05-08T23:17:31.910Z,95854.81
2023-05-08T23:20:18.084Z,95857.69
2023-05-08T23:23:04.359Z,95861.53
2023-05-08T23:25:51.056Z,95858.34
2023-05-08T23:28:37.476Z,95854.72
2023-05-08T23:31:23.442Z,95852.00
2023-05-08T23:34:09.788Z,95855.84
2023-05-08T23:36:55.878Z,95856.50
2023-05-08T23:39:41.818Z,95848.31
2023-05-08T23:42:28.456Z,95846.88
2023-05-08T23:45:14.975Z,95849.91
2023-05-08T23:48:01.630Z,95839.09
2023-05-08T23:50:48.242Z,95850.09
2023-05-08T23:53:33.953Z,95842.41
2023-05-08T23:56:20.157Z,95842.41
2023-05-08T23:59:06.866Z,95855.69
